createdAt,value
2023-04-21T00:00:11.437Z,5.40
2023-04-21T00:02:41.974Z,6.50
2023-04-21T00:05:11.347Z,4.00
2023-04-21T00:07:41.853Z,5.10
2023-04-21T00:10:11.320Z,5.70
2023-04-21T00:12:41.534Z,4.70
2023-04-21T00:15:10.609Z,4.00
2023-04-21T00:17:41.533Z,6.20
2023-04-21T00:20:14.709Z,8.30
2023-04-21T00:22:44.306Z,4.20
2023-04-21T00:25:13.009Z,5.10
2023-04-21T00:27:42.499Z,6.70
2023-04-21T00:30:12.695Z,4.90
2023-04-21T00:32:42.103Z,6.10
2023-04-21T00:35:10.808Z,6.00
2023-04-21T00:37:40.542Z,4.30
2023-04-21T00:40:10.861Z,5.40
2023-04-21T00:42:41.967Z,3.60
2023-04-21T00:45:10.975Z,5.20
2023-04-21T00:47:40.243Z,4.90
2023-04-21T00:50:10.693Z,5.30
2023-04-21T00:52:40.663Z,6.70
2023-04-21T00:55:10.583Z,5.50
2023-04-21T00:57:39.237Z,4.80
2023-04-21T01:00:09.136Z,6.50
2023-04-21T01:02:40.033Z,5.10
2023-04-21T01:05:09.490Z,4.10
2023-04-21T01:07:40.095Z,4.00
2023-04-21T01:10:09.263Z,5.10
2023-04-21T01:12:45.767Z,4.30
2023-04-21T01:15:17.018Z,6.10
2023-04-21T01:17:46.211Z,9.20
2023-04-21T01:20:16.250Z,7.40
2023-04-21T01:22:48.167Z,6.00
2023-04-21T01:25:18.878Z,5.10
2023-04-21T01:27:47.578Z,5.00
2023-04-21T01:30:15.927Z,6.30
2023-04-21T01:32:44.993Z,4.20
2023-04-21T01:35:14.499Z,6.90
2023-04-21T01:37:42.826Z,7.80
2023-04-21T01:40:11.516Z,6.00
2023-04-21T01:42:41.399Z,6.60
2023-04-21T01:45:10.474Z,7.70
2023-04-21T01:47:39.402Z,9.40
2023-04-21T01:50:08.746Z,8.10
2023-04-21T01:52:37.367Z,8.20
2023-04-21T01:55:06.598Z,8.40
2023-04-21T01:57:36.556Z,6.00
2023-04-21T02:00:06.224Z,8.70
2023-04-21T02:02:46.539Z,6.30
2023-04-21T02:05:15.234Z,6.20
2023-04-21T02:07:43.695Z,6.30
2023-04-21T02:10:12.614Z,5.80
2023-04-21T02:12:41.774Z,5.20
2023-04-21T02:15:12.004Z,4.90
2023-04-21T02:17:43.109Z,4.60
2023-04-21T02:20:12.829Z,5.60
2023-04-21T02:22:42.263Z,5.00
2023-04-21T02:25:10.908Z,5.50
2023-04-21T02:27:40.638Z,3.50
2023-04-21T02:30:09.803Z,4.60
2023-04-21T02:32:39.075Z,3.30
2023-04-21T02:35:08.053Z,2.70
2023-04-21T02:37:36.820Z,2.70
2023-04-21T02:40:07.379Z,3.40
2023-04-21T02:45:05.123Z,2.60
2023-04-21T02:50:07.273Z,2.00
2023-04-21T02:52:38.259Z,2.70
2023-04-21T02:55:07.457Z,4.10
2023-04-21T02:57:36.016Z,2.60
2023-04-21T03:00:05.265Z,4.00
2023-04-21T03:02:35.075Z,1.40
2023-04-21T03:05:04.555Z,4.30
2023-04-21T03:07:33.264Z,3.30
2023-04-21T03:10:01.701Z,2.60
2023-04-21T03:12:30.895Z,4.30
2023-04-21T03:14:59.836Z,4.40
2023-04-21T03:17:29.359Z,6.00
2023-04-21T03:19:58.883Z,6.70
2023-04-21T03:22:27.532Z,5.70
2023-04-21T03:24:55.932Z,5.90
2023-04-21T03:27:24.312Z,6.80
2023-04-21T03:29:52.689Z,6.20
2023-04-21T03:32:22.163Z,5.40
2023-04-21T03:34:51.722Z,6.40
2023-04-21T03:37:21.110Z,7.30
2023-04-21T03:39:50.746Z,9.30
2023-04-21T03:42:19.808Z,7.60
2023-04-21T03:44:48.122Z,5.40
2023-04-21T03:47:18.802Z,6.70
2023-04-21T03:49:49.070Z,8.70
2023-04-21T03:52:18.246Z,7.00
2023-04-21T03:54:46.747Z,7.70
2023-04-21T03:57:16.407Z,8.00
2023-04-21T03:59:46.128Z,8.30
2023-04-21T04:02:15.380Z,8.40
2023-04-21T04:04:44.414Z,6.00
2023-04-21T04:07:14.770Z,9.00
2023-04-21T04:09:45.390Z,7.60
2023-04-21T04:12:14.312Z,10.10
2023-04-21T04:14:43.086Z,12.30
2023-04-21T04:17:13.183Z,12.10
2023-04-21T04:19:41.732Z,12.20
2023-04-21T04:22:10.094Z,11.90
2023-04-21T04:24:39.424Z,12.10
2023-04-21T04:27:08.064Z,15.30
2023-04-21T04:29:36.525Z,11.80
2023-04-21T04:32:06.837Z,13.80
2023-04-21T04:34:37.914Z,9.50
2023-04-21T04:37:07.236Z,11.30
2023-04-21T04:39:37.531Z,12.00
2023-04-21T04:42:12.011Z,9.00
2023-04-21T04:44:41.859Z,9.50
2023-04-21T04:47:10.803Z,14.30
2023-04-21T04:49:40.426Z,11.60
2023-04-21T04:52:09.147Z,13.20
2023-04-21T04:54:37.912Z,13.70
2023-04-21T04:57:06.680Z,10.50
2023-04-21T04:59:37.030Z,10.80
2023-04-21T05:02:05.872Z,10.00
2023-04-21T05:04:35.922Z,8.50
2023-04-21T05:07:10.454Z,10.30
2023-04-21T05:09:39.248Z,10.60
2023-04-21T05:12:10.196Z,6.90
2023-04-21T05:14:38.787Z,7.40
2023-04-21T05:17:08.188Z,8.20
2023-04-21T05:19:58.863Z,8.70
2023-04-21T05:22:27.623Z,6.60
2023-04-21T05:24:57.353Z,7.20
2023-04-21T05:27:27.117Z,7.90
2023-04-21T05:29:55.972Z,7.40
2023-04-21T05:32:25.394Z,7.70
2023-04-21T05:34:56.771Z,7.70
2023-04-21T05:37:26.026Z,8.00
2023-04-21T05:39:54.934Z,7.70
2023-04-21T05:42:25.398Z,8.80
2023-04-21T05:44:56.318Z,8.80
2023-04-21T05:47:24.960Z,11.50
2023-04-21T05:49:54.078Z,9.10
2023-04-21T05:52:22.616Z,12.30
2023-04-21T05:54:51.408Z,9.70
2023-04-21T05:57:20.580Z,9.00
2023-04-21T05:59:51.246Z,9.90
2023-04-21T06:02:23.303Z,11.20
2023-04-21T06:04:52.762Z,12.50
2023-04-21T06:07:21.727Z,12.50
2023-04-21T06:09:51.667Z,8.00
2023-04-21T06:12:21.927Z,10.00
2023-04-21T06:14:50.710Z,9.80
2023-04-21T06:17:20.033Z,9.80
2023-04-21T06:19:53.438Z,9.30
2023-04-21T06:22:24.814Z,7.70
2023-04-21T06:24:55.460Z,11.20
2023-04-21T06:27:24.366Z,9.80
2023-04-21T06:29:58.734Z,9.30
2023-04-21T06:32:27.558Z,8.90
2023-04-21T06:34:56.864Z,9.70
2023-04-21T06:37:25.279Z,11.40
2023-04-21T06:39:53.581Z,7.80
2023-04-21T06:42:21.987Z,9.10
2023-04-21T06:44:51.033Z,7.00
2023-04-21T06:47:19.578Z,8.60
2023-04-21T06:49:47.890Z,6.00
2023-04-21T06:52:17.767Z,11.00
2023-04-21T06:57:17.603Z,7.30
2023-04-21T06:59:46.211Z,7.10
2023-04-21T07:02:14.674Z,7.10
2023-04-21T07:04:43.329Z,5.20
2023-04-21T07:07:11.879Z,8.40
2023-04-21T07:09:42.786Z,5.50
2023-04-21T07:12:11.106Z,10.70
2023-04-21T07:14:39.503Z,8.00
2023-04-21T07:17:07.883Z,8.80
2023-04-21T07:19:37.349Z,5.80
2023-04-21T07:22:05.829Z,6.70
2023-04-21T07:24:35.828Z,5.60
2023-04-21T07:27:04.461Z,7.10
2023-04-21T07:29:32.957Z,8.50
2023-04-21T07:32:01.400Z,9.90
2023-04-21T07:34:29.887Z,6.00
2023-04-21T07:36:58.246Z,5.50
2023-04-21T07:39:26.787Z,6.40
2023-04-21T07:41:56.201Z,5.90
2023-04-21T07:44:24.540Z,6.20
2023-04-21T07:46:52.919Z,6.00
2023-04-21T07:49:21.519Z,8.00
2023-04-21T07:51:50.097Z,7.20
2023-04-21T07:54:18.455Z,5.40
2023-04-21T07:56:46.837Z,6.30
2023-04-21T07:59:15.386Z,5.60
2023-04-21T08:01:43.823Z,6.40
2023-04-21T08:04:12.459Z,2.70
2023-04-21T08:06:41.203Z,2.20
2023-04-21T08:09:09.824Z,2.60
2023-04-21T08:11:38.178Z,2.70
2023-04-21T08:14:07.292Z,5.80
2023-04-21T08:16:35.787Z,6.40
2023-04-21T08:19:04.857Z,7.70
2023-04-21T08:21:33.736Z,5.40
2023-04-21T08:24:02.552Z,8.40
2023-04-21T08:26:31.480Z,5.70
2023-04-21T08:29:03.464Z,5.50
2023-04-21T08:31:32.995Z,7.20
2023-04-21T08:34:03.135Z,7.70
2023-04-21T08:36:32.230Z,7.50
2023-04-21T08:39:02.350Z,3.60
2023-04-21T08:41:30.701Z,3.70
2023-04-21T08:44:01.750Z,6.30
2023-04-21T08:46:30.349Z,3.10
2023-04-21T08:48:59.411Z,7.20
2023-04-21T08:51:28.562Z,5.80
2023-04-21T08:53:56.975Z,5.40
2023-04-21T08:56:26.605Z,6.20
2023-04-21T08:58:55.267Z,5.40
2023-04-21T09:01:23.743Z,5.40
2023-04-21T09:03:52.678Z,4.50
2023-04-21T09:06:21.815Z,7.50
2023-04-21T09:08:57.884Z,3.10
2023-04-21T09:11:26.142Z,7.50
2023-04-21T09:13:56.971Z,9.00
2023-04-21T09:16:25.267Z,5.10
2023-04-21T09:18:53.553Z,5.30
2023-04-21T09:21:23.541Z,8.80
2023-04-21T09:23:53.278Z,7.20
2023-04-21T09:26:23.321Z,9.40
2023-04-21T09:28:52.802Z,5.60
2023-04-21T09:31:30.424Z,7.80
2023-04-21T09:34:00.693Z,8.50
2023-04-21T09:36:32.472Z,6.30
2023-04-21T09:41:33.913Z,4.10
2023-04-21T09:44:04.713Z,3.40
2023-04-21T09:46:35.313Z,7.30
2023-04-21T09:49:03.971Z,4.10
2023-04-21T09:51:56.172Z,11.20
2023-04-21T09:56:54.557Z,7.10
2023-04-21T09:59:27.829Z,4.60
2023-04-21T10:01:56.758Z,5.50
2023-04-21T10:04:26.458Z,5.10
2023-04-21T10:06:55.161Z,7.90
2023-04-21T10:09:24.431Z,4.20
2023-04-21T10:11:53.338Z,6.50
2023-04-21T10:14:22.975Z,6.50
2023-04-21T10:17:03.754Z,8.50
2023-04-21T10:19:40.163Z,9.00
2023-04-21T10:22:10.175Z,13.60
2023-04-21T10:24:40.456Z,8.40
2023-04-21T10:27:12.399Z,6.90
2023-04-21T10:29:55.669Z,8.50
2023-04-21T10:32:41.765Z,7.10
2023-04-21T10:35:49.215Z,8.00
2023-04-21T10:38:42.782Z,10.70
2023-04-21T10:41:30.277Z,4.30
2023-04-21T10:44:19.322Z,6.10
2023-04-21T10:46:54.301Z,9.00
2023-04-21T10:49:23.932Z,6.70
2023-04-21T10:52:04.416Z,8.90
2023-04-21T10:54:42.397Z,6.50
2023-04-21T10:57:12.406Z,15.50
2023-04-21T10:59:40.986Z,10.50
2023-04-21T11:02:14.414Z,10.70
2023-04-21T11:04:49.563Z,9.30
2023-04-21T11:07:23.337Z,10.80
2023-04-21T11:09:59.036Z,12.40
2023-04-21T11:12:31.821Z,10.90
2023-04-21T11:15:00.249Z,9.90
2023-04-21T11:17:28.842Z,14.20
2023-04-21T11:19:57.172Z,5.20
2023-04-21T11:22:26.588Z,8.50
2023-04-21T11:24:56.070Z,8.90
2023-04-21T11:27:26.700Z,15.50
2023-04-21T11:29:55.206Z,10.20
2023-04-21T11:32:24.145Z,6.80
2023-04-21T11:34:52.650Z,7.10
2023-04-21T11:37:24.966Z,14.50
2023-04-21T11:40:00.598Z,14.50
2023-04-21T11:42:29.404Z,10.20
2023-04-21T11:44:58.209Z,7.60
2023-04-21T11:47:27.794Z,8.20
2023-04-21T11:49:57.480Z,11.00
2023-04-21T11:52:29.325Z,8.20
2023-04-21T11:55:02.535Z,9.60
2023-04-21T11:57:33.585Z,5.80
2023-04-21T12:00:02.860Z,10.30
2023-04-21T12:02:34.178Z,12.70
2023-04-21T12:05:11.121Z,9.90
2023-04-21T12:07:43.448Z,11.80
2023-04-21T12:10:14.049Z,9.80
2023-04-21T12:12:43.895Z,14.00
2023-04-21T12:15:13.829Z,12.00
2023-04-21T12:17:47.300Z,11.20
2023-04-21T12:20:16.694Z,10.60
2023-04-21T12:22:45.528Z,13.10
2023-04-21T12:25:14.122Z,10.30
2023-04-21T12:27:53.177Z,7.80
2023-04-21T12:30:21.739Z,9.00
2023-04-21T12:32:52.534Z,7.70
2023-04-21T12:35:21.209Z,18.90
2023-04-21T12:37:49.820Z,11.20
2023-04-21T12:40:18.390Z,8.80
2023-04-21T12:42:48.955Z,10.80
2023-04-21T12:45:17.497Z,9.40
2023-04-21T12:47:46.999Z,9.10
2023-04-21T12:50:16.112Z,12.60
2023-04-21T12:52:44.618Z,8.10
2023-04-21T12:55:13.710Z,7.90
2023-04-21T13:04:19.068Z,5.80
2023-04-21T13:14:21.978Z,9.60
2023-04-21T13:16:49.415Z,10.50
2023-04-21T13:19:16.326Z,12.50
2023-04-21T13:21:43.980Z,6.10
2023-04-21T13:24:14.475Z,6.50
2023-04-21T13:29:09.267Z,5.80
2023-04-21T13:31:36.488Z,7.80
2023-04-21T13:34:03.771Z,8.90
2023-04-21T13:36:32.036Z,5.00
2023-04-21T13:39:00.282Z,5.60
2023-04-21T13:41:27.267Z,10.00
2023-04-21T13:43:55.139Z,6.50
2023-04-21T13:46:23.433Z,9.40
2023-04-21T13:48:51.177Z,8.30
2023-04-21T13:51:18.912Z,7.70
2023-04-21T13:53:48.282Z,8.60
2023-04-21T13:56:16.408Z,8.80
2023-04-21T13:58:44.852Z,7.70
2023-04-21T14:01:13.772Z,6.20
2023-04-21T14:03:41.141Z,8.20
2023-04-21T14:06:08.616Z,6.40
2023-04-21T14:08:36.614Z,5.40
2023-04-21T14:11:04.209Z,5.40
2023-04-21T14:13:39.512Z,8.10
2023-04-21T14:16:09.665Z,12.60
2023-04-21T14:18:39.936Z,5.30
2023-04-21T14:21:07.011Z,4.50
2023-04-21T14:23:34.149Z,7.60
2023-04-21T14:26:01.198Z,6.90
2023-04-21T14:28:28.817Z,5.40
2023-04-21T14:30:56.045Z,5.00
2023-04-21T14:33:23.171Z,8.60
2023-04-21T14:35:50.143Z,5.80
2023-04-21T14:38:17.165Z,4.00
2023-04-21T14:40:44.428Z,4.10
2023-04-21T14:43:11.715Z,5.10
2023-04-21T14:45:40.606Z,4.50
2023-04-21T14:48:07.907Z,8.50
2023-04-21T14:50:35.552Z,7.10
2023-04-21T14:53:02.488Z,6.90
2023-04-21T14:55:29.401Z,5.90
2023-04-21T14:57:57.416Z,5.10
2023-04-21T15:00:25.425Z,10.70
2023-04-21T15:02:52.645Z,6.80
2023-04-21T15:05:20.391Z,11.20
2023-04-21T15:07:47.638Z,7.60
2023-04-21T15:10:14.779Z,10.70
2023-04-21T15:12:43.597Z,7.90
2023-04-21T15:15:12.489Z,7.60
2023-04-21T15:17:40.645Z,10.30
2023-04-21T15:20:09.670Z,5.50
2023-04-21T15:22:37.344Z,8.00
2023-04-21T15:25:05.317Z,5.70
2023-04-21T15:27:32.425Z,5.40
2023-04-21T15:29:59.563Z,7.90
2023-04-21T15:32:26.614Z,8.90
2023-04-21T15:34:53.716Z,7.10
2023-04-21T15:37:22.319Z,6.10
2023-04-21T15:39:51.316Z,5.00
2023-04-21T15:42:18.502Z,5.20
2023-04-21T15:44:46.590Z,7.10
2023-04-21T15:47:15.933Z,4.80
2023-04-21T15:49:45.076Z,7.60
2023-04-21T15:52:12.309Z,9.20
2023-04-21T15:54:40.502Z,8.50
2023-04-21T15:57:08.122Z,8.00
2023-04-21T15:59:35.742Z,6.20
2023-04-21T16:02:05.965Z,5.90
2023-04-21T16:04:40.518Z,5.20
2023-04-21T16:07:08.202Z,5.30
2023-04-21T16:09:36.022Z,6.90
2023-04-21T16:12:08.802Z,10.40
2023-04-21T16:14:54.588Z,3.70
2023-04-21T16:17:32.296Z,10.00
2023-04-21T16:20:01.362Z,7.50
2023-04-21T16:22:28.574Z,9.10
2023-04-21T16:24:58.216Z,7.80
2023-04-21T16:27:26.776Z,5.70
2023-04-21T16:29:53.877Z,9.50
2023-04-21T16:32:21.282Z,7.00
2023-04-21T16:34:49.106Z,4.30
2023-04-21T16:37:16.693Z,4.50
2023-04-21T16:39:50.146Z,7.80
2023-04-21T16:42:19.214Z,8.10
2023-04-21T16:44:46.348Z,11.80
2023-04-21T16:47:13.617Z,8.50
2023-04-21T16:49:41.180Z,6.20
2023-04-21T16:52:08.289Z,3.30
2023-04-21T16:54:37.527Z,5.00
2023-04-21T16:57:26.758Z,10.40
2023-04-21T16:59:55.658Z,5.40
2023-04-21T17:02:24.367Z,5.50
2023-04-21T17:04:53.267Z,6.00
2023-04-21T17:07:22.298Z,9.50
2023-04-21T17:09:51.600Z,4.80
2023-04-21T17:12:20.338Z,9.60
2023-04-21T17:14:48.956Z,4.30
2023-04-21T17:17:17.438Z,3.90
2023-04-21T17:19:46.160Z,8.40
2023-04-21T17:22:14.582Z,5.80
2023-04-21T17:24:52.475Z,6.10
2023-04-21T17:27:22.595Z,7.40
2023-04-21T17:29:51.445Z,6.60
2023-04-21T17:32:20.220Z,6.40
2023-04-21T17:34:49.996Z,4.90
2023-04-21T17:37:18.565Z,3.70
2023-04-21T17:39:46.997Z,4.80
2023-04-21T17:42:16.794Z,5.00
2023-04-21T17:44:45.372Z,3.80
2023-04-21T17:47:13.957Z,5.80
2023-04-21T17:49:42.681Z,5.50
2023-04-21T17:52:11.515Z,7.70
2023-04-21T17:54:40.220Z,5.60
2023-04-21T17:57:09.125Z,5.50
2023-04-21T17:59:40.755Z,4.40
2023-04-21T18:02:10.098Z,4.80
2023-04-21T18:04:39.170Z,3.60
2023-04-21T18:07:08.308Z,4.40
2023-04-21T18:09:38.286Z,2.40
2023-04-21T18:12:07.311Z,8.50
2023-04-21T18:14:37.102Z,7.20
2023-04-21T18:17:06.291Z,7.60
2023-04-21T18:19:38.191Z,4.90
2023-04-21T18:22:08.377Z,7.60
2023-04-21T18:24:37.326Z,5.00
2023-04-21T18:27:06.086Z,6.00
2023-04-21T18:29:34.926Z,4.60
2023-04-21T18:32:05.167Z,4.60
2023-04-21T18:34:35.473Z,3.40
2023-04-21T18:37:23.047Z,6.10
2023-04-21T18:40:05.989Z,5.20
2023-04-21T18:42:34.878Z,3.90
2023-04-21T18:45:04.799Z,7.10
2023-04-21T18:47:36.633Z,5.10
2023-04-21T18:50:06.719Z,4.90
2023-04-21T18:52:39.129Z,6.20
2023-04-21T18:55:10.338Z,4.00
2023-04-21T18:57:39.316Z,4.10
2023-04-21T19:00:10.264Z,5.40
2023-04-21T19:02:39.966Z,3.90
2023-04-21T19:05:09.441Z,6.40
2023-04-21T19:07:37.988Z,5.70
2023-04-21T19:10:07.680Z,3.40
2023-04-21T19:12:37.392Z,4.00
2023-04-21T19:15:07.528Z,3.60
2023-04-21T19:17:36.892Z,4.70
2023-04-21T19:20:27.076Z,4.80
2023-04-21T19:23:01.919Z,3.60
2023-04-21T19:25:33.278Z,4.90
2023-04-21T19:30:31.166Z,3.60
2023-04-21T19:33:00.231Z,5.10
2023-04-21T19:35:28.919Z,3.20
2023-04-21T19:37:57.431Z,3.50
2023-04-21T19:40:27.171Z,5.40
2023-04-21T19:42:56.121Z,3.80
2023-04-21T19:45:25.704Z,5.00
2023-04-21T19:47:54.432Z,5.20
2023-04-21T19:50:23.246Z,5.50
2023-04-21T19:52:51.942Z,4.50
2023-04-21T19:55:20.835Z,14.70
2023-04-21T19:57:49.601Z,5.60
2023-04-21T20:00:18.091Z,4.20
2023-04-21T20:02:46.875Z,4.20
2023-04-21T20:05:15.687Z,3.50
2023-04-21T20:07:44.614Z,4.30
2023-04-21T20:10:14.144Z,4.60
2023-04-21T20:12:42.909Z,2.60
2023-04-21T20:15:13.040Z,2.80
2023-04-21T20:17:42.354Z,4.10
2023-04-21T20:20:13.334Z,4.00
2023-04-21T20:22:41.813Z,3.80
2023-04-21T20:25:11.038Z,2.20
2023-04-21T20:27:40.367Z,1.80
2023-04-21T20:30:09.290Z,4.30
2023-04-21T20:32:38.049Z,3.30
2023-04-21T20:35:08.437Z,2.60
2023-04-21T20:37:37.733Z,3.40
2023-04-21T20:40:11.800Z,3.00
2023-04-21T20:42:40.619Z,3.90
2023-04-21T20:45:09.722Z,2.60
2023-04-21T20:47:40.028Z,3.30
2023-04-21T20:50:09.251Z,3.00
2023-04-21T20:52:38.033Z,3.70
2023-04-21T20:55:07.223Z,6.50
2023-04-21T20:57:35.917Z,3.50
2023-04-21T21:00:09.993Z,4.50
2023-04-21T21:02:39.141Z,5.40
2023-04-21T21:05:07.984Z,2.90
2023-04-21T21:07:37.741Z,4.50
2023-04-21T21:10:06.609Z,2.20
2023-04-21T21:12:36.232Z,1.80
2023-04-21T21:15:05.731Z,4.10
2023-04-21T21:17:34.317Z,3.20
2023-04-21T21:20:03.077Z,3.30
2023-04-21T21:22:32.296Z,2.00
2023-04-21T21:25:01.114Z,3.90
2023-04-21T21:27:29.866Z,5.80
2023-04-21T21:29:58.209Z,3.80
2023-04-21T21:32:26.603Z,4.20
2023-04-21T21:34:55.491Z,5.10
2023-04-21T21:37:24.762Z,5.10
2023-04-21T21:39:55.063Z,4.70
2023-04-21T21:42:24.746Z,3.60
2023-04-21T21:44:53.210Z,7.20
2023-04-21T21:47:21.515Z,3.00
2023-04-21T21:50:09.843Z,4.40
2023-04-21T21:52:40.630Z,2.80
2023-04-21T21:55:09.520Z,4.10
2023-04-21T21:57:38.426Z,3.40
2023-04-21T22:00:08.981Z,5.60
2023-04-21T22:02:38.215Z,2.50
2023-04-21T22:05:06.734Z,2.60
2023-04-21T22:07:36.951Z,3.80
2023-04-21T22:10:05.897Z,3.20
2023-04-21T22:12:34.399Z,2.60
2023-04-21T22:15:03.019Z,3.40
2023-04-21T22:17:31.674Z,2.30
2023-04-21T22:20:00.892Z,1.70
2023-04-21T22:22:29.508Z,2.30
2023-04-21T22:24:58.168Z,1.90
2023-04-21T22:27:26.713Z,2.20
2023-04-21T22:29:58.606Z,1.60
2023-04-21T22:32:29.611Z,1.60
2023-04-21T22:37:28.105Z,5.70
2023-04-21T22:39:58.128Z,2.80
2023-04-21T22:42:27.238Z,1.30
2023-04-21T22:44:55.738Z,1.60
2023-04-21T22:47:24.240Z,2.30
2023-04-21T22:49:53.693Z,2.00
2023-04-21T22:52:22.417Z,1.80
2023-04-21T22:54:51.126Z,1.70
2023-04-21T22:57:20.985Z,2.10
2023-04-21T22:59:50.399Z,1.30
2023-04-21T23:02:18.913Z,1.20
2023-04-21T23:04:47.739Z,2.70
2023-04-21T23:07:16.083Z,1.60
2023-04-21T23:09:45.215Z,1.70
2023-04-21T23:12:15.294Z,1.90
2023-04-21T23:14:44.518Z,2.20
2023-04-21T23:17:12.854Z,9.40
2023-04-21T23:19:43.427Z,8.50
2023-04-21T23:22:12.024Z,15.30
2023-04-21T23:24:40.452Z,8.10
2023-04-21T23:27:10.366Z,12.20
2023-04-21T23:29:39.078Z,16.50
2023-04-21T23:32:08.136Z,20.10
2023-04-21T23:34:37.249Z,13.20
2023-04-21T23:37:05.612Z,16.90
2023-04-21T23:39:34.324Z,14.40
2023-04-21T23:42:04.850Z,14.00
2023-04-21T23:44:34.071Z,15.30
2023-04-21T23:47:02.343Z,13.50
2023-04-21T23:49:30.903Z,16.00
2023-04-21T23:51:59.900Z,9.20
2023-04-21T23:54:28.777Z,11.20
2023-04-21T23:56:57.477Z,6.30
2023-04-21T23:59:26.652Z,8.80
